sensor_id;sensor_type;location;lat;lon;timestamp;P1;P2;P0
31330;PMS5003;34067;39.548;-76.088;2023-09-18T00:01:18;15;12;
31330;PMS5003;34067;39.548;-76.088;2023-09-18T00:03:46;16;16;
31330;PMS5003;34067;39.548;-76.088;2023-09-18T00:06:14;10;10;
31330;PMS5003;34067;39.548;-76.088;2023-09-18T00:08:42;12;9;
31330;PMS5003;34067;39.548;-76.088;2023-09-18T00:11:10;15;14;
31330;PMS5003;34067;39.548;-76.088;2023-09-18T00:13:38;11;11;
31330;PMS5003;34067;39.548;-76.088;2023-09-18T00:16:06;13;11;
31330;PMS5003;34067;39.548;-76.088;2023-09-18T00:18:33;12;10;
31330;PMS5003;34067;39.548;-76.088;2023-09-18T00:21:01;8;7;
31330;PMS5003;34067;39.548;-76.088;2023-09-18T00:23:30;13;12;
31330;PMS5003;34067;39.548;-76.088;2023-09-18T00:25:58;11;11;
31330;PMS5003;34067;39.548;-76.088;2023-09-18T00:28:26;8;8;
31330;PMS5003;34067;39.548;-76.088;2023-09-18T00:30:54;10;10;
31330;PMS5003;34067;39.548;-76.088;2023-09-18T00:33:22;9;9;
31330;PMS5003;34067;39.548;-76.088;2023-09-18T00:35:51;11;11;
31330;PMS5003;34067;39.548;-76.088;2023-09-18T00:38:18;11;10;
31330;PMS5003;34067;39.548;-76.088;2023-09-18T00:40:47;11;10;
31330;PMS5003;34067;39.548;-76.088;2023-09-18T00:43:15;13;10;
31330;PMS5003;34067;39.548;-76.088;2023-09-18T00:45:44;11;9;
31330;PMS5003;34067;39.548;-76.088;2023-09-18T00:48:15;11;10;
31330;PMS5003;34067;39.548;-76.088;2023-09-18T00:50:43;9;8;
31330;PMS5003;34067;39.548;-76.088;2023-09-18T00:53:13;12;11;
31330;PMS5003;34067;39.548;-76.088;2023-09-18T00:55:44;14;12;
31330;PMS5003;34067;39.548;-76.088;2023-09-18T00:58:12;11;11;
31330;PMS5003;34067;39.548;-76.088;2023-09-18T01:00:40;11;10;
31330;PMS5003;34067;39.548;-76.088;2023-09-18T01:03:08;10;10;
31330;PMS5003;34067;39.548;-76.088;2023-09-18T01:05:36;12;11;
31330;PMS5003;34067;39.548;-76.088;2023-09-18T01:08:04;11;11;
31330;PMS5003;34067;39.548;-76.088;2023-09-18T01:10:34;11;11;
31330;PMS5003;34067;39.548;-76.088;2023-09-18T01:13:08;11;10;
31330;PMS5003;34067;39.548;-76.088;2023-09-18T01:15:42;11;10;
31330;PMS5003;34067;39.548;-76.088;2023-09-18T01:18:15;9;9;
31330;PMS5003;34067;39.548;-76.088;2023-09-18T01:20:44;12;11;
31330;PMS5003;34067;39.548;-76.088;2023-09-18T01:23:12;9;9;
31330;PMS5003;34067;39.548;-76.088;2023-09-18T01:25:40;10;10;
31330;PMS5003;34067;39.548;-76.088;2023-09-18T01:28:10;12;11;
31330;PMS5003;34067;39.548;-76.088;2023-09-18T01:30:38;12;11;
31330;PMS5003;34067;39.548;-76.088;2023-09-18T01:33:06;11;10;
31330;PMS5003;34067;39.548;-76.088;2023-09-18T01:35:35;8;8;
31330;PMS5003;34067;39.548;-76.088;2023-09-18T01:38:04;11;10;
31330;PMS5003;34067;39.548;-76.088;2023-09-18T01:40:32;12;12;
31330;PMS5003;34067;39.548;-76.088;2023-09-18T01:43:00;11;11;
31330;PMS5003;34067;39.548;-76.088;2023-09-18T01:45:28;10;9;
31330;PMS5003;34067;39.548;-76.088;2023-09-18T01:47:56;12;11;
31330;PMS5003;34067;39.548;-76.088;2023-09-18T01:50:24;12;11;
31330;PMS5003;34067;39.548;-76.088;2023-09-18T01:52:52;12;11;
31330;PMS5003;34067;39.548;-76.088;2023-09-18T01:55:20;11;10;
31330;PMS5003;34067;39.548;-76.088;2023-09-18T01:57:48;10;9;
31330;PMS5003;34067;39.548;-76.088;2023-09-18T02:00:16;10;10;
31330;PMS5003;34067;39.548;-76.088;2023-09-18T02:02:44;9;9;
31330;PMS5003;34067;39.548;-76.088;2023-09-18T02:05:12;10;10;
31330;PMS5003;34067;39.548;-76.088;2023-09-18T02:07:40;11;10;
31330;PMS5003;34067;39.548;-76.088;2023-09-18T02:10:08;9;8;
31330;PMS5003;34067;39.548;-76.088;2023-09-18T02:12:36;12;12;
31330;PMS5003;34067;39.548;-76.088;2023-09-18T02:15:04;10;10;
31330;PMS5003;34067;39.548;-76.088;2023-09-18T02:17:32;11;11;
31330;PMS5003;34067;39.548;-76.088;2023-09-18T02:20:01;10;10;
31330;PMS5003;34067;39.548;-76.088;2023-09-18T02:22:30;11;9;
31330;PMS5003;34067;39.548;-76.088;2023-09-18T02:24:59;11;11;
31330;PMS5003;34067;39.548;-76.088;2023-09-18T02:27:27;12;11;
31330;PMS5003;34067;39.548;-76.088;2023-09-18T02:29:54;11;10;
31330;PMS5003;34067;39.548;-76.088;2023-09-18T02:32:22;11;11;
31330;PMS5003;34067;39.548;-76.088;2023-09-18T02:34:50;11;10;
31330;PMS5003;34067;39.548;-76.088;2023-09-18T02:37:18;10;10;
31330;PMS5003;34067;39.548;-76.088;2023-09-18T02:39:46;10;10;
31330;PMS5003;34067;39.548;-76.088;2023-09-18T02:42:13;10;9;
31330;PMS5003;34067;39.548;-76.088;2023-09-18T02:44:41;11;9;
31330;PMS5003;34067;39.548;-76.088;2023-09-18T02:47:09;11;10;
31330;PMS5003;34067;39.548;-76.088;2023-09-18T02:49:37;10;9;
31330;PMS5003;34067;39.548;-76.088;2023-09-18T02:52:06;13;11;
31330;PMS5003;34067;39.548;-76.088;2023-09-18T02:54:33;11;10;
31330;PMS5003;34067;39.548;-76.088;2023-09-18T02:57:01;11;10;
31330;PMS5003;34067;39.548;-76.088;2023-09-18T02:59:29;10;9;
31330;PMS5003;34067;39.548;-76.088;2023-09-18T03:01:57;10;10;
31330;PMS5003;34067;39.548;-76.088;2023-09-18T03:04:25;11;10;
31330;PMS5003;34067;39.548;-76.088;2023-09-18T03:06:53;10;10;
31330;PMS5003;34067;39.548;-76.088;2023-09-18T03:09:21;11;10;
31330;PMS5003;34067;39.548;-76.088;2023-09-18T03:11:49;13;12;
31330;PMS5003;34067;39.548;-76.088;2023-09-18T03:14:17;10;9;
31330;PMS5003;34067;39.548;-76.088;2023-09-18T03:16:45;9;9;
31330;PMS5003;34067;39.548;-76.088;2023-09-18T03:19:13;9;8;
31330;PMS5003;34067;39.548;-76.088;2023-09-18T03:21:41;12;11;
31330;PMS5003;34067;39.548;-76.088;2023-09-18T03:24:08;11;10;
31330;PMS5003;34067;39.548;-76.088;2023-09-18T03:26:36;12;12;
31330;PMS5003;34067;39.548;-76.088;2023-09-18T03:29:04;9;9;
31330;PMS5003;34067;39.548;-76.088;2023-09-18T03:31:32;9;9;
31330;PMS5003;34067;39.548;-76.088;2023-09-18T03:34:00;12;12;
31330;PMS5003;34067;39.548;-76.088;2023-09-18T03:36:28;11;11;
31330;PMS5003;34067;39.548;-76.088;2023-09-18T03:38:56;12;11;
31330;PMS5003;34067;39.548;-76.088;2023-09-18T03:41:24;11;9;
31330;PMS5003;34067;39.548;-76.088;2023-09-18T03:43:51;9;9;
31330;PMS5003;34067;39.548;-76.088;2023-09-18T03:46:19;10;10;
31330;PMS5003;34067;39.548;-76.088;2023-09-18T03:48:47;11;11;
31330;PMS5003;34067;39.548;-76.088;2023-09-18T03:51:15;12;11;
31330;PMS5003;34067;39.548;-76.088;2023-09-18T03:53:43;11;9;
31330;PMS5003;34067;39.548;-76.088;2023-09-18T03:56:11;11;11;
31330;PMS5003;34067;39.548;-76.088;2023-09-18T03:58:38;13;11;
31330;PMS5003;34067;39.548;-76.088;2023-09-18T04:01:07;13;11;
31330;PMS5003;34067;39.548;-76.088;2023-09-18T04:03:35;9;9;
31330;PMS5003;34067;39.548;-76.088;2023-09-18T04:06:03;12;12;
31330;PMS5003;34067;39.548;-76.088;2023-09-18T04:08:31;15;13;
31330;PMS5003;34067;39.548;-76.088;2023-09-18T04:10:59;10;10;
31330;PMS5003;34067;39.548;-76.088;2023-09-18T04:13:28;10;9;
31330;PMS5003;34067;39.548;-76.088;2023-09-18T04:15:55;9;9;
31330;PMS5003;34067;39.548;-76.088;2023-09-18T04:18:23;10;10;
31330;PMS5003;34067;39.548;-76.088;2023-09-18T04:20:51;10;10;
31330;PMS5003;34067;39.548;-76.088;2023-09-18T04:23:21;10;10;
31330;PMS5003;34067;39.548;-76.088;2023-09-18T04:25:50;11;10;
31330;PMS5003;34067;39.548;-76.088;2023-09-18T04:28:19;12;11;
31330;PMS5003;34067;39.548;-76.088;2023-09-18T04:30:49;9;9;
31330;PMS5003;34067;39.548;-76.088;2023-09-18T04:33:17;9;9;
31330;PMS5003;34067;39.548;-76.088;2023-09-18T04:35:45;9;9;
31330;PMS5003;34067;39.548;-76.088;2023-09-18T04:38:12;9;9;
31330;PMS5003;34067;39.548;-76.088;2023-09-18T04:40:41;9;9;
31330;PMS5003;34067;39.548;-76.088;2023-09-18T04:43:08;6;6;
31330;PMS5003;34067;39.548;-76.088;2023-09-18T04:45:36;10;9;
31330;PMS5003;34067;39.548;-76.088;2023-09-18T04:48:04;7;7;
31330;PMS5003;34067;39.548;-76.088;2023-09-18T04:50:32;8;8;
31330;PMS5003;34067;39.548;-76.088;2023-09-18T04:53:00;9;8;
31330;PMS5003;34067;39.548;-76.088;2023-09-18T04:55:28;9;9;
31330;PMS5003;34067;39.548;-76.088;2023-09-18T04:57:56;9;8;
31330;PMS5003;34067;39.548;-76.088;2023-09-18T05:03:10;10;8;
31330;PMS5003;34067;39.548;-76.088;2023-09-18T05:05:38;7;7;
31330;PMS5003;34067;39.548;-76.088;2023-09-18T05:08:06;8;8;
31330;PMS5003;34067;39.548;-76.088;2023-09-18T05:10:35;11;10;
31330;PMS5003;34067;39.548;-76.088;2023-09-18T05:13:03;7;7;
31330;PMS5003;34067;39.548;-76.088;2023-09-18T05:15:32;9;8;
31330;PMS5003;34067;39.548;-76.088;2023-09-18T05:18:00;9;8;
31330;PMS5003;34067;39.548;-76.088;2023-09-18T05:20:28;9;7;
31330;PMS5003;34067;39.548;-76.088;2023-09-18T05:22:57;11;10;
31330;PMS5003;34067;39.548;-76.088;2023-09-18T05:25:26;9;8;
31330;PMS5003;34067;39.548;-76.088;2023-09-18T05:27:56;8;8;
31330;PMS5003;34067;39.548;-76.088;2023-09-18T05:30:25;8;8;
31330;PMS5003;34067;39.548;-76.088;2023-09-18T05:32:55;9;8;
31330;PMS5003;34067;39.548;-76.088;2023-09-18T05:35:23;9;9;
31330;PMS5003;34067;39.548;-76.088;2023-09-18T05:37:52;10;10;
31330;PMS5003;34067;39.548;-76.088;2023-09-18T05:40:20;8;8;
31330;PMS5003;34067;39.548;-76.088;2023-09-18T05:42:48;11;9;
31330;PMS5003;34067;39.548;-76.088;2023-09-18T05:45:16;7;7;
31330;PMS5003;34067;39.548;-76.088;2023-09-18T05:47:44;9;8;
31330;PMS5003;34067;39.548;-76.088;2023-09-18T05:50:12;11;10;
31330;PMS5003;34067;39.548;-76.088;2023-09-18T05:52:41;9;8;
31330;PMS5003;34067;39.548;-76.088;2023-09-18T05:55:09;10;9;
31330;PMS5003;34067;39.548;-76.088;2023-09-18T05:57:38;10;10;
31330;PMS5003;34067;39.548;-76.088;2023-09-18T06:00:06;9;7;
31330;PMS5003;34067;39.548;-76.088;2023-09-18T06:02:34;9;7;
31330;PMS5003;34067;39.548;-76.088;2023-09-18T06:05:03;8;8;
31330;PMS5003;34067;39.548;-76.088;2023-09-18T06:07:30;8;7;
31330;PMS5003;34067;39.548;-76.088;2023-09-18T06:09:58;9;9;
31330;PMS5003;34067;39.548;-76.088;2023-09-18T06:12:26;9;7;
31330;PMS5003;34067;39.548;-76.088;2023-09-18T06:14:54;8;8;
31330;PMS5003;34067;39.548;-76.088;2023-09-18T06:17:22;7;7;
31330;PMS5003;34067;39.548;-76.088;2023-09-18T06:19:51;11;10;
31330;PMS5003;34067;39.548;-76.088;2023-09-18T06:22:19;7;6;
31330;PMS5003;34067;39.548;-76.088;2023-09-18T06:24:47;7;6;
31330;PMS5003;34067;39.548;-76.088;2023-09-18T06:27:15;7;7;
31330;PMS5003;34067;39.548;-76.088;2023-09-18T06:29:42;13;9;
31330;PMS5003;34067;39.548;-76.088;2023-09-18T06:32:10;9;7;
31330;PMS5003;34067;39.548;-76.088;2023-09-18T06:34:39;8;7;
31330;PMS5003;34067;39.548;-76.088;2023-09-18T06:37:07;8;8;
31330;PMS5003;34067;39.548;-76.088;2023-09-18T06:39:35;8;7;
31330;PMS5003;34067;39.548;-76.088;2023-09-18T06:42:04;7;7;
31330;PMS5003;34067;39.548;-76.088;2023-09-18T06:44:32;9;7;
31330;PMS5003;34067;39.548;-76.088;2023-09-18T06:47:00;9;9;
31330;PMS5003;34067;39.548;-76.088;2023-09-18T06:49:27;8;8;
31330;PMS5003;34067;39.548;-76.088;2023-09-18T06:51:55;7;6;
31330;PMS5003;34067;39.548;-76.088;2023-09-18T06:54:23;7;7;
31330;PMS5003;34067;39.548;-76.088;2023-09-18T06:56:51;7;7;
31330;PMS5003;34067;39.548;-76.088;2023-09-18T06:59:19;8;7;
31330;PMS5003;34067;39.548;-76.088;2023-09-18T07:01:47;8;7;
31330;PMS5003;34067;39.548;-76.088;2023-09-18T07:04:15;9;8;
31330;PMS5003;34067;39.548;-76.088;2023-09-18T07:06:42;11;10;
31330;PMS5003;34067;39.548;-76.088;2023-09-18T07:09:10;7;7;
31330;PMS5003;34067;39.548;-76.088;2023-09-18T07:11:38;9;9;
31330;PMS5003;34067;39.548;-76.088;2023-09-18T07:14:06;9;9;
31330;PMS5003;34067;39.548;-76.088;2023-09-18T07:16:34;9;9;
31330;PMS5003;34067;39.548;-76.088;2023-09-18T07:19:02;11;10;
31330;PMS5003;34067;39.548;-76.088;2023-09-18T07:21:30;9;8;
31330;PMS5003;34067;39.548;-76.088;2023-09-18T07:23:58;9;8;
31330;PMS5003;34067;39.548;-76.088;2023-09-18T07:26:25;10;8;
31330;PMS5003;34067;39.548;-76.088;2023-09-18T07:28:54;9;9;
31330;PMS5003;34067;39.548;-76.088;2023-09-18T07:31:21;9;8;
31330;PMS5003;34067;39.548;-76.088;2023-09-18T07:33:49;9;8;
31330;PMS5003;34067;39.548;-76.088;2023-09-18T07:36:17;8;8;
31330;PMS5003;34067;39.548;-76.088;2023-09-18T07:38:45;6;6;
31330;PMS5003;34067;39.548;-76.088;2023-09-18T07:41:13;7;7;
31330;PMS5003;34067;39.548;-76.088;2023-09-18T07:43:41;7;6;
31330;PMS5003;34067;39.548;-76.088;2023-09-18T07:46:09;8;8;
31330;PMS5003;34067;39.548;-76.088;2023-09-18T07:48:37;6;6;
31330;PMS5003;34067;39.548;-76.088;2023-09-18T07:51:05;9;8;
31330;PMS5003;34067;39.548;-76.088;2023-09-18T07:53:33;5;5;
31330;PMS5003;34067;39.548;-76.088;2023-09-18T07:56:01;7;7;
31330;PMS5003;34067;39.548;-76.088;2023-09-18T07:58:28;7;7;
31330;PMS5003;34067;39.548;-76.088;2023-09-18T08:00:56;9;9;
31330;PMS5003;34067;39.548;-76.088;2023-09-18T08:03:24;6;6;
31330;PMS5003;34067;39.548;-76.088;2023-09-18T08:05:52;10;9;
31330;PMS5003;34067;39.548;-76.088;2023-09-18T08:08:21;9;8;
31330;PMS5003;34067;39.548;-76.088;2023-09-18T08:10:49;9;9;
31330;PMS5003;34067;39.548;-76.088;2023-09-18T08:13:18;6;6;
31330;PMS5003;34067;39.548;-76.088;2023-09-18T08:15:46;8;7;
31330;PMS5003;34067;39.548;-76.088;2023-09-18T08:18:14;11;10;
31330;PMS5003;34067;39.548;-76.088;2023-09-18T08:20:42;8;8;
31330;PMS5003;34067;39.548;-76.088;2023-09-18T08:23:10;11;9;
31330;PMS5003;34067;39.548;-76.088;2023-09-18T08:25:39;8;7;
31330;PMS5003;34067;39.548;-76.088;2023-09-18T08:28:07;8;8;
31330;PMS5003;34067;39.548;-76.088;2023-09-18T08:30:35;11;11;
31330;PMS5003;34067;39.548;-76.088;2023-09-18T08:33:03;8;8;
31330;PMS5003;34067;39.548;-76.088;2023-09-18T08:35:30;8;8;
31330;PMS5003;34067;39.548;-76.088;2023-09-18T08:37:58;9;8;
31330;PMS5003;34067;39.548;-76.088;2023-09-18T08:40:26;7;7;
31330;PMS5003;34067;39.548;-76.088;2023-09-18T08:42:55;17;17;
31330;PMS5003;34067;39.548;-76.088;2023-09-18T08:45:26;12;12;
31330;PMS5003;34067;39.548;-76.088;2023-09-18T08:47:58;10;10;
31330;PMS5003;34067;39.548;-76.088;2023-09-18T08:50:26;14;13;
31330;PMS5003;34067;39.548;-76.088;2023-09-18T08:52:55;12;11;
31330;PMS5003;34067;39.548;-76.088;2023-09-18T08:55:24;11;11;
31330;PMS5003;34067;39.548;-76.088;2023-09-18T08:57:52;9;8;
31330;PMS5003;34067;39.548;-76.088;2023-09-18T09:00:22;9;8;
31330;PMS5003;34067;39.548;-76.088;2023-09-18T09:02:50;9;9;
31330;PMS5003;34067;39.548;-76.088;2023-09-18T09:05:17;8;8;
31330;PMS5003;34067;39.548;-76.088;2023-09-18T09:07:45;10;10;
31330;PMS5003;34067;39.548;-76.088;2023-09-18T09:10:13;11;9;
31330;PMS5003;34067;39.548;-76.088;2023-09-18T09:12:50;11;11;
31330;PMS5003;34067;39.548;-76.088;2023-09-18T09:15:20;8;7;
31330;PMS5003;34067;39.548;-76.088;2023-09-18T09:17:50;7;7;
31330;PMS5003;34067;39.548;-76.088;2023-09-18T09:20:27;11;9;
31330;PMS5003;34067;39.548;-76.088;2023-09-18T09:23:00;10;10;
31330;PMS5003;34067;39.548;-76.088;2023-09-18T09:25:29;9;9;
31330;PMS5003;34067;39.548;-76.088;2023-09-18T09:27:59;11;10;
31330;PMS5003;34067;39.548;-76.088;2023-09-18T09:30:29;10;10;
31330;PMS5003;34067;39.548;-76.088;2023-09-18T09:32:58;11;10;
31330;PMS5003;34067;39.548;-76.088;2023-09-18T09:35:27;11;10;
31330;PMS5003;34067;39.548;-76.088;2023-09-18T09:37:57;12;12;
31330;PMS5003;34067;39.548;-76.088;2023-09-18T09:40:27;10;9;
31330;PMS5003;34067;39.548;-76.088;2023-09-18T09:42:58;10;10;
31330;PMS5003;34067;39.548;-76.088;2023-09-18T09:45:26;10;9;
31330;PMS5003;34067;39.548;-76.088;2023-09-18T09:47:55;9;9;
31330;PMS5003;34067;39.548;-76.088;2023-09-18T09:50:24;9;8;
31330;PMS5003;34067;39.548;-76.088;2023-09-18T09:52:53;11;11;
31330;PMS5003;34067;39.548;-76.088;2023-09-18T09:55:22;10;9;
31330;PMS5003;34067;39.548;-76.088;2023-09-18T09:57:52;10;9;
31330;PMS5003;34067;39.548;-76.088;2023-09-18T10:00:22;9;9;
31330;PMS5003;34067;39.548;-76.088;2023-09-18T10:02:50;10;9;
31330;PMS5003;34067;39.548;-76.088;2023-09-18T10:05:20;11;10;
31330;PMS5003;34067;39.548;-76.088;2023-09-18T10:07:52;12;12;
31330;PMS5003;34067;39.548;-76.088;2023-09-18T10:10:21;13;11;
31330;PMS5003;34067;39.548;-76.088;2023-09-18T10:12:50;15;14;
31330;PMS5003;34067;39.548;-76.088;2023-09-18T10:15:20;15;14;
31330;PMS5003;34067;39.548;-76.088;2023-09-18T10:17:49;10;9;
31330;PMS5003;34067;39.548;-76.088;2023-09-18T10:20:21;10;10;
31330;PMS5003;34067;39.548;-76.088;2023-09-18T10:22:52;12;11;
31330;PMS5003;34067;39.548;-76.088;2023-09-18T10:25:24;12;11;
31330;PMS5003;34067;39.548;-76.088;2023-09-18T10:27:55;11;10;
31330;PMS5003;34067;39.548;-76.088;2023-09-18T10:30:24;12;12;
31330;PMS5003;34067;39.548;-76.088;2023-09-18T10:32:52;9;9;
31330;PMS5003;34067;39.548;-76.088;2023-09-18T10:35:21;10;9;
31330;PMS5003;34067;39.548;-76.088;2023-09-18T10:37:49;9;8;
31330;PMS5003;34067;39.548;-76.088;2023-09-18T10:40:21;8;8;
31330;PMS5003;34067;39.548;-76.088;2023-09-18T10:42:50;11;11;
31330;PMS5003;34067;39.548;-76.088;2023-09-18T10:45:21;13;13;
31330;PMS5003;34067;39.548;-76.088;2023-09-18T10:47:49;13;11;
31330;PMS5003;34067;39.548;-76.088;2023-09-18T10:50:26;12;12;
31330;PMS5003;34067;39.548;-76.088;2023-09-18T10:52:56;15;14;
31330;PMS5003;34067;39.548;-76.088;2023-09-18T10:55:25;17;15;
31330;PMS5003;34067;39.548;-76.088;2023-09-18T10:57:53;14;13;
31330;PMS5003;34067;39.548;-76.088;2023-09-18T11:00:24;11;11;
31330;PMS5003;34067;39.548;-76.088;2023-09-18T11:02:53;11;10;
31330;PMS5003;34067;39.548;-76.088;2023-09-18T11:05:38;11;11;
31330;PMS5003;34067;39.548;-76.088;2023-09-18T11:08:43;11;11;
31330;PMS5003;34067;39.548;-76.088;2023-09-18T11:11:13;16;15;
31330;PMS5003;34067;39.548;-76.088;2023-09-18T11:13:45;11;11;
31330;PMS5003;34067;39.548;-76.088;2023-09-18T11:16:16;20;17;
31330;PMS5003;34067;39.548;-76.088;2023-09-18T11:18:47;24;22;
31330;PMS5003;34067;39.548;-76.088;2023-09-18T11:21:17;14;14;
31330;PMS5003;34067;39.548;-76.088;2023-09-18T11:23:57;10;10;
31330;PMS5003;34067;39.548;-76.088;2023-09-18T11:26:29;17;17;
31330;PMS5003;34067;39.548;-76.088;2023-09-18T11:28:59;13;11;
31330;PMS5003;34067;39.548;-76.088;2023-09-18T11:31:41;23;18;
31330;PMS5003;34067;39.548;-76.088;2023-09-18T11:34:13;15;14;
31330;PMS5003;34067;39.548;-76.088;2023-09-18T11:36:42;21;20;
31330;PMS5003;34067;39.548;-76.088;2023-09-18T11:39:11;27;26;
31330;PMS5003;34067;39.548;-76.088;2023-09-18T11:41:40;17;15;
31330;PMS5003;34067;39.548;-76.088;2023-09-18T11:44:41;18;17;
31330;PMS5003;34067;39.548;-76.088;2023-09-18T11:47:09;19;19;
31330;PMS5003;34067;39.548;-76.088;2023-09-18T11:49:39;15;15;
31330;PMS5003;34067;39.548;-76.088;2023-09-18T11:52:08;15;15;
31330;PMS5003;34067;39.548;-76.088;2023-09-18T11:54:37;17;17;
31330;PMS5003;34067;39.548;-76.088;2023-09-18T11:57:06;22;22;
31330;PMS5003;34067;39.548;-76.088;2023-09-18T11:59:37;17;17;
31330;PMS5003;34067;39.548;-76.088;2023-09-18T12:02:06;12;11;
31330;PMS5003;34067;39.548;-76.088;2023-09-18T12:04:34;39;39;
31330;PMS5003;34067;39.548;-76.088;2023-09-18T12:07:04;21;21;
31330;PMS5003;34067;39.548;-76.088;2023-09-18T12:09:32;21;20;
31330;PMS5003;34067;39.548;-76.088;2023-09-18T12:12:00;19;17;
31330;PMS5003;34067;39.548;-76.088;2023-09-18T12:14:32;33;32;
31330;PMS5003;34067;39.548;-76.088;2023-09-18T12:17:01;23;21;
31330;PMS5003;34067;39.548;-76.088;2023-09-18T12:19:30;20;17;
31330;PMS5003;34067;39.548;-76.088;2023-09-18T12:21:58;23;22;
31330;PMS5003;34067;39.548;-76.088;2023-09-18T12:24:25;29;26;
31330;PMS5003;34067;39.548;-76.088;2023-09-18T12:26:54;22;19;
31330;PMS5003;34067;39.548;-76.088;2023-09-18T12:29:24;22;18;
31330;PMS5003;34067;39.548;-76.088;2023-09-18T12:31:52;24;23;
31330;PMS5003;34067;39.548;-76.088;2023-09-18T12:34:21;22;19;
31330;PMS5003;34067;39.548;-76.088;2023-09-18T12:36:49;22;21;
31330;PMS5003;34067;39.548;-76.088;2023-09-18T12:39:18;21;18;
31330;PMS5003;34067;39.548;-76.088;2023-09-18T12:41:47;26;23;
31330;PMS5003;34067;39.548;-76.088;2023-09-18T12:44:15;23;20;
31330;PMS5003;34067;39.548;-76.088;2023-09-18T12:46:43;26;23;
31330;PMS5003;34067;39.548;-76.088;2023-09-18T12:49:16;27;25;
31330;PMS5003;34067;39.548;-76.088;2023-09-18T12:51:54;26;25;
31330;PMS5003;34067;39.548;-76.088;2023-09-18T12:54:36;26;23;
31330;PMS5003;34067;39.548;-76.088;2023-09-18T12:57:05;28;21;
31330;PMS5003;34067;39.548;-76.088;2023-09-18T12:59:34;27;23;
31330;PMS5003;34067;39.548;-76.088;2023-09-18T13:02:03;24;23;
31330;PMS5003;34067;39.548;-76.088;2023-09-18T13:04:32;22;20;
31330;PMS5003;34067;39.548;-76.088;2023-09-18T13:07:04;20;18;
31330;PMS5003;34067;39.548;-76.088;2023-09-18T13:09:34;26;25;
31330;PMS5003;34067;39.548;-76.088;2023-09-18T13:12:03;28;25;
31330;PMS5003;34067;39.548;-76.088;2023-09-18T13:14:57;28;26;
31330;PMS5003;34067;39.548;-76.088;2023-09-18T13:17:25;24;22;
31330;PMS5003;34067;39.548;-76.088;2023-09-18T13:19:53;27;24;
31330;PMS5003;34067;39.548;-76.088;2023-09-18T13:22:22;26;25;
31330;PMS5003;34067;39.548;-76.088;2023-09-18T13:24:55;27;26;
31330;PMS5003;34067;39.548;-76.088;2023-09-18T13:27:22;32;30;
31330;PMS5003;34067;39.548;-76.088;2023-09-18T13:29:51;25;23;
31330;PMS5003;34067;39.548;-76.088;2023-09-18T13:32:19;24;22;
31330;PMS5003;34067;39.548;-76.088;2023-09-18T13:34:48;33;31;
31330;PMS5003;34067;39.548;-76.088;2023-09-18T13:37:16;22;20;
31330;PMS5003;34067;39.548;-76.088;2023-09-18T13:39:43;32;28;
31330;PMS5003;34067;39.548;-76.088;2023-09-18T13:42:11;26;23;
31330;PMS5003;34067;39.548;-76.088;2023-09-18T13:44:40;27;22;
31330;PMS5003;34067;39.548;-76.088;2023-09-18T13:47:07;19;19;
31330;PMS5003;34067;39.548;-76.088;2023-09-18T13:49:36;21;21;
31330;PMS5003;34067;39.548;-76.088;2023-09-18T13:52:04;23;21;
31330;PMS5003;34067;39.548;-76.088;2023-09-18T13:54:33;27;22;
31330;PMS5003;34067;39.548;-76.088;2023-09-18T13:57:01;23;18;
31330;PMS5003;34067;39.548;-76.088;2023-09-18T13:59:29;18;16;
31330;PMS5003;34067;39.548;-76.088;2023-09-18T14:01:57;25;20;
31330;PMS5003;34067;39.548;-76.088;2023-09-18T14:04:24;23;20;
31330;PMS5003;34067;39.548;-76.088;2023-09-18T14:06:54;21;21;
31330;PMS5003;34067;39.548;-76.088;2023-09-18T14:09:23;24;21;
31330;PMS5003;34067;39.548;-76.088;2023-09-18T14:11:51;21;21;
31330;PMS5003;34067;39.548;-76.088;2023-09-18T14:14:18;22;21;
31330;PMS5003;34067;39.548;-76.088;2023-09-18T14:16:48;20;17;
31330;PMS5003;34067;39.548;-76.088;2023-09-18T14:19:15;25;21;
31330;PMS5003;34067;39.548;-76.088;2023-09-18T14:21:43;21;20;
31330;PMS5003;34067;39.548;-76.088;2023-09-18T14:24:11;19;18;
31330;PMS5003;34067;39.548;-76.088;2023-09-18T14:26:39;20;18;
31330;PMS5003;34067;39.548;-76.088;2023-09-18T14:29:07;16;15;
31330;PMS5003;34067;39.548;-76.088;2023-09-18T14:31:35;18;16;
31330;PMS5003;34067;39.548;-76.088;2023-09-18T14:34:03;16;16;
31330;PMS5003;34067;39.548;-76.088;2023-09-18T14:36:31;15;14;
31330;PMS5003;34067;39.548;-76.088;2023-09-18T14:39:00;15;13;
31330;PMS5003;34067;39.548;-76.088;2023-09-18T14:41:28;17;14;
31330;PMS5003;34067;39.548;-76.088;2023-09-18T14:43:57;17;15;
31330;PMS5003;34067;39.548;-76.088;2023-09-18T14:46:25;12;11;
31330;PMS5003;34067;39.548;-76.088;2023-09-18T14:48:53;11;10;
31330;PMS5003;34067;39.548;-76.088;2023-09-18T14:51:21;13;13;
31330;PMS5003;34067;39.548;-76.088;2023-09-18T14:53:48;11;11;
31330;PMS5003;34067;39.548;-76.088;2023-09-18T14:56:16;13;12;
31330;PMS5003;34067;39.548;-76.088;2023-09-18T14:58:44;10;10;
31330;PMS5003;34067;39.548;-76.088;2023-09-18T15:01:12;10;8;
31330;PMS5003;34067;39.548;-76.088;2023-09-18T15:03:40;10;10;
31330;PMS5003;34067;39.548;-76.088;2023-09-18T15:06:08;10;9;
31330;PMS5003;34067;39.548;-76.088;2023-09-18T15:08:36;12;11;
31330;PMS5003;34067;39.548;-76.088;2023-09-18T15:11:03;12;11;
31330;PMS5003;34067;39.548;-76.088;2023-09-18T15:13:32;8;8;
31330;PMS5003;34067;39.548;-76.088;2023-09-18T15:16:01;12;10;
31330;PMS5003;34067;39.548;-76.088;2023-09-18T15:18:30;14;11;
31330;PMS5003;34067;39.548;-76.088;2023-09-18T15:20:58;12;10;
31330;PMS5003;34067;39.548;-76.088;2023-09-18T15:23:26;9;9;
31330;PMS5003;34067;39.548;-76.088;2023-09-18T15:25:54;9;9;
31330;PMS5003;34067;39.548;-76.088;2023-09-18T15:28:22;13;12;
31330;PMS5003;34067;39.548;-76.088;2023-09-18T15:30:51;15;13;
31330;PMS5003;34067;39.548;-76.088;2023-09-18T15:33:19;12;12;
31330;PMS5003;34067;39.548;-76.088;2023-09-18T15:35:47;11;11;
31330;PMS5003;34067;39.548;-76.088;2023-09-18T15:38:15;11;11;
31330;PMS5003;34067;39.548;-76.088;2023-09-18T15:40:43;11;10;
31330;PMS5003;34067;39.548;-76.088;2023-09-18T15:43:10;10;10;
31330;PMS5003;34067;39.548;-76.088;2023-09-18T15:45:38;9;9;
31330;PMS5003;34067;39.548;-76.088;2023-09-18T15:48:07;10;9;
31330;PMS5003;34067;39.548;-76.088;2023-09-18T15:50:35;12;9;
31330;PMS5003;34067;39.548;-76.088;2023-09-18T15:53:03;9;9;
31330;PMS5003;34067;39.548;-76.088;2023-09-18T15:55:31;7;7;
31330;PMS5003;34067;39.548;-76.088;2023-09-18T15:57:59;9;8;
31330;PMS5003;34067;39.548;-76.088;2023-09-18T16:00:27;7;7;
31330;PMS5003;34067;39.548;-76.088;2023-09-18T16:02:55;9;8;
31330;PMS5003;34067;39.548;-76.088;2023-09-18T16:05:22;8;8;
31330;PMS5003;34067;39.548;-76.088;2023-09-18T16:07:50;6;6;
31330;PMS5003;34067;39.548;-76.088;2023-09-18T16:10:19;6;6;